createdAt,value
2022-11-05T00:03:28.821Z,100126.48
2022-11-05T00:06:38.195Z,100135.65
2022-11-05T00:09:31.861Z,100128.92
2022-11-05T00:12:41.303Z,100133.78
2022-11-05T00:15:51.356Z,100131.52
2022-11-05T00:18:45.438Z,100126.43
2022-11-05T00:21:56.515Z,100122.53
2022-11-05T00:25:06.160Z,100129.87
2022-11-05T00:28:03.736Z,100133.72
2022-11-05T00:31:01.440Z,100146.36
2022-11-05T00:33:53.634Z,100143.92
2022-11-05T00:36:45.289Z,100140.64
2022-11-05T00:39:37.430Z,100142.67
2022-11-05T00:42:47.023Z,100141.84
2022-11-05T00:45:40.290Z,100135.91
2022-11-05T00:48:50.132Z,100133.64
2022-11-05T00:51:42.149Z,100138.33
2022-11-05T00:54:34.193Z,100131.59
2022-11-05T00:57:26.678Z,100131.77
2022-11-05T01:00:20.432Z,100125.66
2022-11-05T01:03:14.943Z,100138.09
2022-11-05T01:06:14.068Z,100136.66
2022-11-05T01:09:07.033Z,100135.65
2022-11-05T01:11:59.284Z,100133.17
2022-11-05T01:14:51.342Z,100127.06
2022-11-05T01:17:43.345Z,100121.77
2022-11-05T01:20:35.722Z,100117.47
2022-11-05T01:23:27.307Z,100116.45
2022-11-05T01:26:20.120Z,100113.80
2022-11-05T01:29:14.695Z,100104.84
2022-11-05T01:32:07.395Z,100103.82
2022-11-05T01:34:57.994Z,100097.50
2022-11-05T01:37:50.421Z,100095.66
2022-11-05T01:40:46.357Z,100102.42
2022-11-05T01:43:51.576Z,100097.73
2022-11-05T01:46:47.775Z,100097.52
2022-11-05T01:49:40.921Z,100098.15
2022-11-05T01:52:36.510Z,100097.13
2022-11-05T01:55:33.076Z,100092.45
2022-11-05T01:58:32.341Z,100087.77
2022-11-05T02:01:24.357Z,100088.39
2022-11-05T02:04:22.741Z,100082.06
2022-11-05T02:07:15.557Z,100080.87
2022-11-05T02:10:11.089Z,100082.50
2022-11-05T02:13:03.971Z,100080.47
2022-11-05T02:16:04.762Z,100082.91
2022-11-05T02:19:08.101Z,100091.50
2022-11-05T02:22:22.863Z,100088.84
2022-11-05T02:25:34.352Z,100093.97
2022-11-05T02:28:50.138Z,100107.86
2022-11-05T02:31:47.704Z,100123.56
2022-11-05T02:34:51.001Z,100122.55
2022-11-05T02:37:47.035Z,100120.73
2022-11-05T02:40:47.500Z,100114.41
2022-11-05T02:43:52.892Z,100100.12
2022-11-05T02:46:55.988Z,100105.22
2022-11-05T02:49:55.498Z,100108.48
2022-11-05T02:52:56.431Z,100101.36
2022-11-05T02:55:52.867Z,100092.38
2022-11-05T02:58:45.220Z,100089.52
2022-11-05T03:01:39.426Z,100096.46
2022-11-05T03:04:33.454Z,100092.79
2022-11-05T03:07:39.621Z,100085.66
2022-11-05T03:10:44.629Z,100083.81
2022-11-05T03:13:46.933Z,100088.31
2022-11-05T03:16:43.138Z,100097.08
2022-11-05T03:19:40.523Z,100100.57
2022-11-05T03:22:41.666Z,100104.23
2022-11-05T03:25:39.024Z,100103.41
2022-11-05T03:28:35.888Z,100107.70
2022-11-05T03:31:28.709Z,100105.88
2022-11-05T03:34:23.036Z,100110.17
2022-11-05T03:37:16.434Z,100116.28
2022-11-05T03:40:13.514Z,100115.27
2022-11-05T03:43:08.375Z,100110.79
2022-11-05T03:46:06.303Z,100100.36
2022-11-05T03:49:00.625Z,100105.66
2022-11-05T03:51:59.050Z,100103.22
2022-11-05T03:54:51.332Z,100112.82
2022-11-05T03:57:48.849Z,100101.37
2022-11-05T04:00:41.286Z,100099.55
2022-11-05T04:03:36.748Z,100091.77
2022-11-05T04:06:46.650Z,100089.95
2022-11-05T04:09:57.114Z,100096.06
2022-11-05T04:13:07.515Z,100102.20
2022-11-05T04:16:18.451Z,100103.01
2022-11-05T04:19:10.697Z,100101.19
2022-11-05T04:22:20.332Z,100105.48
2022-11-05T04:25:13.848Z,100101.99
2022-11-05T04:28:06.279Z,100104.47
2022-11-05T04:30:59.088Z,100103.62
2022-11-05T04:33:51.213Z,100115.88
2022-11-05T04:36:41.695Z,100128.35
2022-11-05T04:39:34.366Z,100131.01
2022-11-05T04:42:26.808Z,100131.81
2022-11-05T04:45:19.249Z,100115.08
2022-11-05T04:48:11.686Z,100119.38
2022-11-05T04:51:04.792Z,100109.55
2022-11-05T04:53:56.972Z,100094.65
2022-11-05T04:56:49.045Z,100093.63
2022-11-05T04:59:40.018Z,100098.14
2022-11-05T05:02:32.101Z,100101.99
2022-11-05T05:05:23.464Z,100119.77
2022-11-05T05:08:16.006Z,100128.75
2022-11-05T05:11:07.003Z,100136.71
2022-11-05T05:13:59.152Z,100142.02
2022-11-05T05:16:51.924Z,100134.05
2022-11-05T05:20:01.848Z,100120.78
2022-11-05T05:22:58.182Z,100119.95
2022-11-05T05:25:50.719Z,100120.78
2022-11-05T05:28:42.683Z,100137.52
2022-11-05T05:31:35.827Z,100149.14
2022-11-05T05:34:27.794Z,100165.70
2022-11-05T05:37:19.430Z,100176.52
2022-11-05T05:40:14.324Z,100178.97
2022-11-05T05:43:06.757Z,100171.84
2022-11-05T05:45:59.041Z,100182.24
2022-11-05T05:48:52.457Z,100189.02
2022-11-05T05:51:44.544Z,100188.00
2022-11-05T05:54:42.260Z,100186.14
2022-11-05T05:57:36.201Z,100191.89
2022-11-05T06:00:26.549Z,100193.94
2022-11-05T06:03:18.757Z,100206.02
2022-11-05T06:06:14.209Z,100209.08
2022-11-05T06:09:06.265Z,100215.23
2022-11-05T06:11:57.877Z,100219.35
2022-11-05T06:14:51.790Z,100223.87
2022-11-05T06:17:46.123Z,100226.94
2022-11-05T06:20:38.110Z,100226.36
2022-11-05T06:23:31.217Z,100227.59
2022-11-05T06:26:24.226Z,100230.27
2022-11-05T06:29:16.696Z,100227.02
2022-11-05T06:32:09.020Z,100227.06
2022-11-05T06:35:01.094Z,100240.56
2022-11-05T06:37:53.527Z,100233.43
2022-11-05T06:40:45.976Z,100229.16
2022-11-05T06:43:35.955Z,100230.21
2022-11-05T06:46:27.987Z,100226.13
2022-11-05T06:49:20.284Z,100220.81
2022-11-05T06:52:12.388Z,100227.98
2022-11-05T06:55:04.899Z,100229.83
2022-11-05T06:57:58.670Z,100223.50
2022-11-05T07:00:51.655Z,100228.01
2022-11-05T07:03:45.325Z,100227.80
2022-11-05T07:06:37.310Z,100228.62
2022-11-05T07:09:30.261Z,100216.14
2022-11-05T07:12:22.207Z,100219.20
2022-11-05T07:15:15.790Z,100214.69
2022-11-05T07:18:09.551Z,100222.45
2022-11-05T07:21:02.395Z,100224.06
2022-11-05T07:23:54.279Z,100223.03
2022-11-05T07:26:47.372Z,100222.81
2022-11-05T07:29:39.929Z,100222.58
2022-11-05T07:32:32.984Z,100225.21
2022-11-05T07:35:27.185Z,100225.01
2022-11-05T07:38:22.942Z,100218.64
2022-11-05T07:41:15.831Z,100221.49
2022-11-05T07:44:07.872Z,100228.83
2022-11-05T07:47:00.110Z,100232.29
2022-11-05T07:49:50.498Z,100223.67
2022-11-05T07:52:42.391Z,100229.18
2022-11-05T07:55:35.261Z,100221.36
2022-11-05T07:58:27.576Z,100210.88
2022-11-05T08:01:19.707Z,100219.05
2022-11-05T08:04:12.303Z,100218.39
2022-11-05T08:07:04.332Z,100217.77
2022-11-05T08:09:56.535Z,100215.28
2022-11-05T08:12:48.798Z,100213.98
2022-11-05T08:15:41.070Z,100218.66
2022-11-05T08:18:32.861Z,100218.83
2022-11-05T08:21:24.550Z,100218.99
2022-11-05T08:24:17.132Z,100218.36
2022-11-05T08:27:07.524Z,100216.89
2022-11-05T08:30:00.028Z,100223.20
2022-11-05T08:32:52.905Z,100224.79
2022-11-05T08:35:45.461Z,100222.88
2022-11-05T08:38:37.761Z,100222.01
2022-11-05T08:41:30.141Z,100217.42
2022-11-05T08:44:22.378Z,100212.25
2022-11-05T08:47:14.642Z,100215.70
2022-11-05T08:50:07.308Z,100206.80
2022-11-05T08:53:00.600Z,100197.70
2022-11-05T08:55:52.801Z,100203.55
2022-11-05T08:58:46.946Z,100197.56
2022-11-05T09:01:42.518Z,100204.45
2022-11-05T09:04:35.977Z,100208.69
2022-11-05T09:07:32.628Z,100229.97
2022-11-05T09:10:26.170Z,100229.67
2022-11-05T09:13:20.327Z,100234.95
2022-11-05T09:16:20.854Z,100231.38
2022-11-05T09:19:13.380Z,100225.94
2022-11-05T09:22:05.553Z,100222.36
2022-11-05T09:24:58.383Z,100222.05
2022-11-05T09:27:51.133Z,100214.30
2022-11-05T09:30:48.890Z,100214.22
2022-11-05T09:33:43.826Z,100216.78
2022-11-05T09:36:36.224Z,100206.37
2022-11-05T09:39:29.283Z,100203.74
2022-11-05T09:42:26.237Z,100205.16
2022-11-05T09:45:21.692Z,100214.81
2022-11-05T09:48:22.413Z,100216.47
2022-11-05T09:51:23.689Z,100212.52
2022-11-05T09:54:17.896Z,100211.22
2022-11-05T09:57:18.053Z,100206.89
2022-11-05T10:00:17.472Z,100204.20
2022-11-05T10:03:14.199Z,100202.34
2022-11-05T10:06:14.150Z,100196.14
2022-11-05T10:09:13.537Z,100195.28
2022-11-05T10:12:12.691Z,100197.36
2022-11-05T10:15:12.133Z,100191.71
2022-11-05T10:18:14.254Z,100196.20
2022-11-05T10:21:07.980Z,100194.50
2022-11-05T10:24:00.953Z,100192.73
2022-11-05T10:26:55.711Z,100193.39
2022-11-05T10:29:48.333Z,100195.34
2022-11-05T10:32:42.770Z,100192.73
2022-11-05T10:35:42.030Z,100193.08
2022-11-05T10:38:49.911Z,100189.91
2022-11-05T10:42:24.355Z,100186.25
2022-11-05T10:45:27.031Z,100185.53
2022-11-05T10:48:53.380Z,100192.38
2022-11-05T10:52:07.006Z,100191.39
2022-11-05T10:55:11.317Z,100182.36
2022-11-05T10:58:24.914Z,100183.00
2022-11-05T11:01:16.993Z,100177.44
2022-11-05T11:04:16.299Z,100177.58
2022-11-05T11:07:20.284Z,100168.59
2022-11-05T11:10:23.101Z,100177.62
2022-11-05T11:13:24.501Z,100171.80
2022-11-05T11:16:24.473Z,100166.28
2022-11-05T11:19:29.085Z,100166.41
2022-11-05T11:22:23.562Z,100159.55
2022-11-05T11:25:28.584Z,100176.62
2022-11-05T11:28:24.618Z,100163.52
2022-11-05T11:31:19.236Z,100162.81
2022-11-05T11:34:27.077Z,100155.91
2022-11-05T11:37:24.609Z,100157.58
2022-11-05T11:40:22.005Z,100154.69
2022-11-05T11:43:24.603Z,100144.77
2022-11-05T11:46:21.481Z,100145.12
2022-11-05T11:49:34.455Z,100142.47
2022-11-05T11:52:33.339Z,100147.06
2022-11-05T11:55:27.877Z,100141.44
2022-11-05T11:58:20.122Z,100150.62
2022-11-05T12:01:49.088Z,100149.03
2022-11-05T12:05:04.746Z,100156.84
2022-11-05T12:07:59.432Z,100152.59
2022-11-05T12:11:04.642Z,100155.63
2022-11-05T12:14:04.482Z,100146.23
2022-11-05T12:17:19.922Z,100147.88
2022-11-05T12:20:35.544Z,100143.34
2022-11-05T12:23:50.630Z,100139.06
2022-11-05T12:26:54.911Z,100143.38
2022-11-05T12:29:59.636Z,100140.16
2022-11-05T12:33:20.454Z,100142.58
2022-11-05T12:36:33.744Z,100145.82
2022-11-05T12:39:50.905Z,100141.51
2022-11-05T12:42:57.673Z,100140.44
2022-11-05T12:45:58.105Z,100142.88
2022-11-05T12:49:15.942Z,100144.50
2022-11-05T12:52:40.072Z,100139.11
2022-11-05T12:55:37.073Z,100139.36
2022-11-05T12:58:34.323Z,100148.27
2022-11-05T13:01:34.257Z,100148.80
2022-11-05T13:04:42.078Z,100149.04
2022-11-05T13:07:39.200Z,100144.45
2022-11-05T13:10:37.655Z,100155.75
2022-11-05T13:13:38.490Z,100158.97
2022-11-05T13:16:35.450Z,100153.55
2022-11-05T13:19:31.028Z,100152.45
2022-11-05T13:22:37.053Z,100157.80
2022-11-05T13:25:32.713Z,100148.86
2022-11-05T13:28:38.717Z,100147.20
2022-11-05T13:31:36.393Z,100150.66
2022-11-05T13:34:33.440Z,100156.80
2022-11-05T13:37:50.859Z,100139.81
2022-11-05T13:40:56.202Z,100147.02
2022-11-05T13:44:03.799Z,100154.50
2022-11-05T13:47:17.332Z,100153.66
2022-11-05T13:50:54.136Z,100161.70
2022-11-05T13:54:23.847Z,100166.20
2022-11-05T13:57:36.518Z,100169.92
2022-11-05T14:00:35.137Z,100173.12
2022-11-05T14:03:28.457Z,100171.73
2022-11-05T14:06:27.769Z,100173.07
2022-11-05T14:09:26.052Z,100179.20
2022-11-05T14:12:26.646Z,100179.97
2022-11-05T14:15:25.869Z,100179.41
2022-11-05T14:18:40.073Z,100187.99
2022-11-05T14:21:51.237Z,100179.59
2022-11-05T14:24:47.482Z,100183.86
2022-11-05T14:27:56.293Z,100190.80
2022-11-05T14:30:50.654Z,100201.27
2022-11-05T14:33:55.518Z,100194.77
2022-11-05T14:37:03.522Z,100198.44
2022-11-05T14:39:57.275Z,100196.75
2022-11-05T14:42:53.210Z,100198.55
2022-11-05T14:45:55.383Z,100199.31
2022-11-05T14:48:52.774Z,100195.99
2022-11-05T14:51:49.374Z,100196.98
2022-11-05T14:54:46.999Z,100199.61
2022-11-05T14:58:07.807Z,100199.77
2022-11-05T15:01:02.200Z,100198.91
2022-11-05T15:04:26.823Z,100195.33
2022-11-05T15:07:38.892Z,100199.83
2022-11-05T15:10:32.953Z,100207.81
2022-11-05T15:13:32.938Z,100208.80
2022-11-05T15:16:31.356Z,100214.32
2022-11-05T15:19:30.820Z,100221.81
2022-11-05T15:22:38.280Z,100223.36
2022-11-05T15:25:36.387Z,100224.11
2022-11-05T15:28:35.585Z,100221.34
2022-11-05T15:31:42.139Z,100230.94
2022-11-05T15:34:36.057Z,100231.42
2022-11-05T15:37:29.169Z,100225.69
2022-11-05T15:40:29.353Z,100226.17
2022-11-05T15:43:21.754Z,100226.66
2022-11-05T15:46:17.678Z,100226.34
2022-11-05T15:49:11.120Z,100224.38
2022-11-05T15:52:03.380Z,100240.95
2022-11-05T15:55:22.858Z,100232.81
2022-11-05T15:58:15.092Z,100232.50
2022-11-05T16:01:08.799Z,100227.84
2022-11-05T16:04:09.788Z,100243.63
2022-11-05T16:07:10.235Z,100248.41
2022-11-05T16:10:07.381Z,100247.02
2022-11-05T16:13:31.756Z,100255.54
2022-11-05T16:16:34.210Z,100253.59
2022-11-05T16:19:42.869Z,100261.54
2022-11-05T16:22:53.689Z,100267.37
2022-11-05T16:25:47.337Z,100279.64
2022-11-05T16:28:39.547Z,100272.06
2022-11-05T16:31:34.041Z,100275.23
2022-11-05T16:34:32.085Z,100277.55
2022-11-05T16:37:25.803Z,100286.90
2022-11-05T16:40:21.295Z,100295.42
2022-11-05T16:43:22.183Z,100285.97
2022-11-05T16:46:15.773Z,100289.12
2022-11-05T16:49:08.042Z,100293.10
2022-11-05T16:52:02.327Z,100301.37
2022-11-05T16:54:54.344Z,100301.84
2022-11-05T16:57:45.907Z,100304.77
2022-11-05T17:00:38.217Z,100304.41
2022-11-05T17:03:30.328Z,100307.81
2022-11-05T17:06:23.811Z,100311.53
2022-11-05T17:09:15.539Z,100305.59
2022-11-05T17:12:08.336Z,100305.02
2022-11-05T17:15:00.385Z,100305.23
2022-11-05T17:17:51.020Z,100307.30
2022-11-05T17:20:48.119Z,100312.08
2022-11-05T17:23:40.928Z,100312.30
2022-11-05T17:26:33.874Z,100310.67
2022-11-05T17:29:27.548Z,100318.95
2022-11-05T17:32:20.068Z,100317.08
2022-11-05T17:35:14.398Z,100322.44
2022-11-05T17:38:06.917Z,100325.95
2022-11-05T17:40:59.566Z,100325.95
2022-11-05T17:43:54.576Z,100326.16
2022-11-05T17:46:46.700Z,100329.67
2022-11-05T17:49:38.934Z,100331.52
2022-11-05T17:52:32.368Z,100329.67
2022-11-05T17:55:24.316Z,100337.72
2022-11-05T17:58:17.696Z,100326.16
2022-11-05T18:01:26.200Z,100332.58
2022-11-05T18:04:18.955Z,100337.93
2022-11-05T18:07:11.018Z,100330.94
2022-11-05T18:10:03.108Z,100334.92
2022-11-05T18:12:55.427Z,100334.09
2022-11-05T18:15:47.350Z,100331.66
2022-11-05T18:18:39.559Z,100341.79
2022-11-05T18:21:32.385Z,100346.56
2022-11-05T18:24:25.004Z,100358.08
2022-11-05T18:27:17.024Z,100364.48
2022-11-05T18:30:14.250Z,100363.10
2022-11-05T18:33:06.476Z,100369.51
2022-11-05T18:35:59.293Z,100360.64
2022-11-05T18:38:53.018Z,100364.15
2022-11-05T18:41:45.986Z,100371.36
2022-11-05T18:44:39.392Z,100377.76
2022-11-05T18:47:33.679Z,100380.09
2022-11-05T18:50:26.418Z,100375.79
2022-11-05T18:53:18.699Z,100381.95
2022-11-05T18:56:16.456Z,100381.36
2022-11-05T18:59:35.301Z,100383.23
2022-11-05T19:02:20.856Z,100385.92
2022-11-05T19:05:28.425Z,100391.49
2022-11-05T19:08:21.654Z,100404.08
2022-11-05T19:11:15.839Z,100404.88
2022-11-05T19:14:10.183Z,100397.89
2022-11-05T19:17:02.626Z,100391.73
2022-11-05T19:19:55.284Z,100406.17
2022-11-05T19:22:48.941Z,100409.90
2022-11-05T19:25:40.345Z,100417.34
2022-11-05T19:28:33.005Z,100433.41
2022-11-05T19:31:26.567Z,100436.31
2022-11-05T19:34:19.367Z,100437.94
2022-11-05T19:37:12.599Z,100439.81
2022-11-05T19:40:04.817Z,100432.00
2022-11-05T19:42:57.144Z,100429.56
2022-11-05T19:45:49.087Z,100422.57
2022-11-05T19:48:42.252Z,100430.02
2022-11-05T19:51:35.198Z,100431.86
2022-11-05T19:54:28.661Z,100433.50
2022-11-05T19:57:21.310Z,100429.19
2022-11-05T20:00:16.361Z,100431.86
2022-11-05T20:03:09.623Z,100439.55
2022-11-05T20:06:08.900Z,100440.59
2022-11-05T20:12:15.260Z,100448.25
2022-11-05T20:15:09.477Z,100440.46
2022-11-05T20:18:01.985Z,100439.04
2022-11-05T20:21:04.142Z,100443.59
2022-11-05T20:23:59.472Z,100442.17
2022-11-05T20:26:52.299Z,100441.37
2022-11-05T20:29:44.926Z,100438.91
2022-11-05T20:32:37.092Z,100449.02
2022-11-05T20:35:30.867Z,100451.70
2022-11-05T20:38:22.853Z,100446.59
2022-11-05T20:41:16.041Z,100451.11
2022-11-05T20:44:08.405Z,100455.66
2022-11-05T20:47:00.737Z,100455.88
2022-11-05T20:49:53.462Z,100452.60
2022-11-05T20:52:45.485Z,100454.48
2022-11-05T20:55:44.139Z,100460.87
2022-11-05T20:58:37.319Z,100454.09
2022-11-05T21:01:30.754Z,100447.94
2022-11-05T21:04:23.541Z,100448.98
2022-11-05T21:07:15.822Z,100451.88
2022-11-05T21:10:07.021Z,100457.46
2022-11-05T21:12:59.356Z,100461.39
2022-11-05T21:15:55.710Z,100456.04
2022-11-05T21:18:48.534Z,100462.44
2022-11-05T21:21:42.118Z,100474.18
2022-11-05T21:24:35.761Z,100472.55
2022-11-05T21:27:28.820Z,100484.09
2022-11-05T21:30:20.955Z,100475.23
2022-11-05T21:33:13.704Z,100474.42
2022-11-05T21:36:12.505Z,100479.98
2022-11-05T21:39:09.100Z,100469.28
2022-11-05T21:42:05.875Z,100473.00
2022-11-05T21:45:00.564Z,100476.72
2022-11-05T21:47:53.164Z,100485.58
2022-11-05T21:51:02.981Z,100480.43
2022-11-05T21:54:13.241Z,100484.98
2022-11-05T21:57:22.880Z,100478.80
2022-11-05T22:00:16.864Z,100479.03
2022-11-05T22:03:09.078Z,100481.71
2022-11-05T22:06:01.762Z,100490.78
2022-11-05T22:08:53.884Z,100482.96
2022-11-05T22:11:45.498Z,100485.64
2022-11-05T22:14:37.401Z,100475.97
2022-11-05T22:17:27.719Z,100484.00
2022-11-05T22:20:20.341Z,100486.08
2022-11-05T22:23:11.382Z,100486.32
2022-11-05T22:26:04.033Z,100497.23
2022-11-05T22:28:57.557Z,100492.72
2022-11-05T22:31:49.363Z,100500.74
2022-11-05T22:34:41.120Z,100486.53
2022-11-05T22:37:32.926Z,100491.88
2022-11-05T22:40:24.801Z,100492.12
2022-11-05T22:43:16.482Z,100490.84
2022-11-05T22:46:11.370Z,100471.31
2022-11-05T22:49:04.206Z,100480.38
2022-11-05T22:52:06.846Z,100472.34
2022-11-05T22:54:59.147Z,100481.41
2022-11-05T22:57:51.001Z,100482.45
2022-11-05T23:00:43.351Z,100493.96
2022-11-05T23:03:36.914Z,100493.16
2022-11-05T23:06:48.301Z,100489.05
2022-11-05T23:09:57.746Z,100496.64
2022-11-05T23:12:53.455Z,100496.88
2022-11-05T23:16:14.574Z,100493.16
2022-11-05T23:19:24.834Z,100491.28
2022-11-05T23:22:35.708Z,100497.47
2022-11-05T23:25:27.738Z,100493.96
2022-11-05T23:28:21.842Z,100486.97
2022-11-05T23:31:32.486Z,100490.48
2022-11-05T23:34:25.094Z,100489.66
2022-11-05T23:37:35.389Z,100492.33
2022-11-05T23:40:29.831Z,100490.69
2022-11-05T23:43:39.731Z,100489.89
2022-11-05T23:46:49.372Z,100492.77
2022-11-05T23:49:42.000Z,100495.45
2022-11-05T23:52:34.052Z,100495.45
2022-11-05T23:55:27.105Z,100490.33
2022-11-05T23:58:20.341Z,100508.02
